This is the latest recevied weather packets stored in our database for station/object JF1AJE-13. If no packets are shown the sender has not sent any weather packets the latest 10 day(s).
| Time | Temp. | Humidity | Pressure | Rain* | Wind** | Luminosity | Snow |
|---|---|---|---|---|---|---|---|
| 1788550841 | 20° C | 92% | 1006.9 hPa | 0.76 mm | - | - | - |
| 1788546039 | 19.44° C | 92% | 1007.2 hPa | 0.51 mm | - | - | - |
| 1788544840 | 19.44° C | 91% | 1007.6 hPa | 1.02 mm | - | - | - |
| 1788542440 | 19.44° C | 91% | 1007.1 hPa | 1.78 mm | - | - | - |
| 1788541241 | 19.44° C | 91% | 1007.7 hPa | 1.52 mm | - | - | - |
| 1788538840 | 20.56° C | 90% | 1007.7 hPa | 0.76 mm | - | - | - |
| 1788537640 | 20.56° C | 90% | 1007.3 hPa | 0.51 mm | - | - | - |
| 1788535239 | 20.56° C | 90% | 1007.8 hPa | 0 mm | - | - | - |
| 1788531640 | 20.56° C | 88% | 1007.2 hPa | 1.02 mm | - | - | - |
| 1788530439 | 20.56° C | 87% | 1008 hPa | 0.76 mm | - | - | - |
| 1788495642 | 25.56° C | 68% | 1005.7 hPa | 0 mm | - | - | - |
| 1788416438 | 26.67° C | 65% | 1006.9 hPa | 0 mm | - | - | - |
| 1788409365 | 29.44° C | 64% | 1005.4 hPa | 0 mm | - | - | - |
| 1788376965 | 25° C | 83% | 1007 hPa | 0 mm | - | - | - |
| 1788361365 | 26.11° C | 79% | 1008 hPa | 0 mm | - | - | - |
| 1788360165 | 26.11° C | 79% | 1008.4 hPa | 0 mm | - | - | - |
| 1788343366 | 27.22° C | 71% | 1008.4 hPa | 0 mm | - | - | - |
| 1788339767 | 27.78° C | 66% | 1008 hPa | 0 mm | - | - | - |
| 1788338566 | 28.33° C | 65% | 1008.1 hPa | 0 mm | - | - | - |
| 1788327765 | 31.67° C | 53% | 1007.7 hPa | 0 mm | - | - | - |
| 1788296565 | 23.33° C | 92% | 1010.5 hPa | 0 mm | - | - | - |
| 1788292965 | 23.33° C | 92% | 1010.6 hPa | 0.25 mm | - | - | - |
| 1788288165 | 23.33° C | 91% | 1010.6 hPa | 0 mm | - | - | - |
| 1788284565 | 23.33° C | 91% | 1011.1 hPa | 0 mm | - | - | - |
| 1788282165 | 23.33° C | 91% | 1011 hPa | 0 mm | - | - | - |
* Rain latest hour (hover to see other rain measurements)
** Current wind speed in m/s (hover to see current wind gust speed)